Edon, OH (43518)

5:19 PM EDT on October 20, 2014 (GMT -0400)
Bridgewater | Change Station
CLOSE
Current Station
Personal Weather Station
Location: Montpelier, OH
Elevation: 899 ft
Nearby Weather Stations

Elev 899 ft 41.63 °N, 84.66 °W | Updated 15 seconds ago

Overcast
Overcast
53.0 °F
Feels Like 53.0 °F
N
0.0
Wind Variable Wind from WNW
Gusts 0.0 mph

Today
High -- | Low -- °F
--% Chance of Precip.
Yesterday
High -- | Low -- °F
Precip. -- in
7:56 AM 6:50 PM
Waning Crescent, 9% visible
Pressure 29.82 in
Visibility 10.0 miles
Clouds Mostly Cloudy 2800 ft
Mostly Cloudy 3200 ft
Dew Point 48 °F
Humidity 82%
Rainfall 0.00 in
Snow Depth Not available.
UV 12.9 out of 12
Pollen 1.00 out of 12
Air Quality Not available.
Flu Activity Sporadic
METAR KANQ 202115Z AUTO 33006KT 10SM BKN028 BKN032 14/09 A2982 RMK

More Conditions Fewer Conditions

Pressure 29.82 in
Visibility 10.0 miles
Clouds Mostly Cloudy 2800 ft
Mostly Cloudy 3200 ft
Dew Point 48 °F
Humidity 82%
Rainfall 0.00 in
Snow Depth Not available.
UV 12.9 out of 12
Pollen 1.00 out of 12
Air Quality Not available.
Flu Activity Sporadic
METAR KANQ 202115Z AUTO 33006KT 10SM BKN028 BKN032 14/09 A2982 RMK

More Conditions Fewer Conditions

10-Day Weather Forecast

Almanac

Astronomy

Oct. 20, 2014 Rise Set
Actual Time 7:56 AM EDT 6:50 PM EDT
Civil Twilight 7:28 AM EDT 7:18 PM EDT
Nautical Twilight 6:56 AM EDT 7:50 PM EDT
Astronomical Twilight 6:24 AM EDT 8:22 PM EDT
Moon 4:41 AM EDT 5:14 PM EDT
Length of Visible Light 11h 49m
Length of Day
10h 53m
Waning Crescent, 9% of the Moon is Illuminated
Today
Waning Crescent
Oct 23
New
Oct 30
First Quarter
Nov 6
Full
Nov 14
Last Quarter

Today's Extremes

State Highs State Lows

Community

WunderPhotos

Upload Photos

1,763,510 photos uploaded!

WunderBlogs® & News

Nearby

Snow Depth

Station Depth Elevation
No new snow has been reported.

Earthquake Activity

City Distance Mag. Time & Date
No recent earthquake activity has been reported nearby.
Minimum magnitude displayed is 2.5.

Coastal Water Temperatures

Place Temperature
No Stations Reporting

Nearby Weather Stations